createdAt,value
2022-08-08T00:01:06.665Z,42.85
2022-08-08T00:03:40.242Z,42.66
2022-08-08T00:06:28.231Z,42.62
2022-08-08T00:09:22.243Z,43.00
2022-08-08T00:12:07.519Z,42.96
2022-08-08T00:14:59.017Z,43.30
2022-08-08T00:18:02.140Z,43.09
2022-08-08T00:20:36.251Z,44.26
2022-08-08T00:23:10.679Z,43.59
2022-08-08T00:25:46.640Z,44.04
2022-08-08T00:28:34.295Z,44.08
2022-08-08T00:32:28.156Z,44.23
2022-08-08T00:34:41.386Z,44.18
2022-08-08T00:37:48.057Z,44.53
2022-08-08T00:41:06.326Z,43.63
2022-08-08T00:43:40.586Z,42.78
2022-08-08T00:46:18.097Z,42.05
2022-08-08T00:49:01.176Z,42.25
2022-08-08T00:51:47.889Z,43.31
2022-08-08T00:54:29.005Z,44.11
2022-08-08T00:57:36.263Z,45.15
2022-08-08T01:00:07.400Z,44.37
2022-08-08T01:04:01.854Z,43.73
2022-08-08T01:06:02.645Z,43.03
2022-08-08T01:08:51.857Z,43.89
2022-08-08T01:11:27.951Z,44.49
2022-08-08T01:14:53.662Z,44.77
2022-08-08T01:17:20.292Z,44.75
2022-08-08T01:20:07.431Z,43.45
2022-08-08T01:22:55.695Z,42.63
2022-08-08T01:25:40.949Z,44.10
2022-08-08T01:28:15.943Z,43.22
2022-08-08T01:31:01.375Z,43.24
2022-08-08T01:34:00.147Z,43.24
2022-08-08T01:36:38.832Z,42.44
2022-08-08T01:39:18.492Z,41.76
2022-08-08T01:42:01.834Z,41.67
2022-08-08T01:44:53.420Z,42.02
2022-08-08T01:48:14.006Z,42.85
2022-08-08T01:50:53.742Z,42.69
2022-08-08T01:55:15.539Z,43.26
2022-08-08T01:56:34.120Z,44.49
2022-08-08T01:59:05.476Z,45.50
2022-08-08T02:02:02.971Z,44.40
2022-08-08T02:04:33.868Z,44.46
2022-08-08T02:07:06.676Z,44.50
2022-08-08T02:10:03.630Z,44.29
2022-08-08T02:12:33.242Z,44.58
2022-08-08T02:15:11.404Z,44.87
2022-08-08T02:17:44.367Z,44.46
2022-08-08T02:21:02.964Z,44.04
2022-08-08T02:23:16.568Z,43.65
2022-08-08T02:25:49.436Z,44.07
2022-08-08T02:28:20.403Z,43.02
2022-08-08T02:30:58.224Z,42.66
2022-08-08T02:34:00.294Z,42.99
2022-08-08T02:36:47.637Z,44.29
2022-08-08T02:39:42.130Z,44.26
2022-08-08T02:42:38.132Z,45.25
2022-08-08T02:45:29.218Z,44.91
2022-08-08T02:47:59.323Z,44.52
2022-08-08T02:50:52.825Z,45.57
2022-08-08T02:53:43.241Z,45.73
2022-08-08T02:56:27.194Z,45.00
2022-08-08T02:59:25.731Z,45.21
2022-08-08T03:02:20.270Z,45.08
2022-08-08T03:05:03.187Z,45.76
2022-08-08T03:08:02.290Z,46.18
2022-08-08T03:10:33.020Z,44.44
2022-08-08T03:15:58.741Z,44.17
2022-08-08T03:16:35.264Z,44.04
2022-08-08T03:19:23.888Z,45.17
2022-08-08T03:21:58.789Z,44.77
2022-08-08T03:24:28.839Z,45.23
2022-08-08T03:27:04.002Z,44.77
2022-08-08T03:29:56.562Z,46.00
2022-08-08T03:32:47.305Z,46.49
2022-08-08T03:35:22.073Z,45.84
2022-08-08T03:37:59.954Z,45.90
2022-08-08T03:40:37.445Z,46.66
2022-08-08T03:43:16.388Z,46.60
2022-08-08T03:46:07.145Z,45.87
2022-08-08T03:49:56.410Z,46.08
2022-08-08T03:51:40.240Z,47.21
2022-08-08T03:54:15.677Z,46.84
2022-08-08T03:58:09.446Z,46.02
2022-08-08T04:00:02.784Z,45.24
2022-08-08T04:02:51.528Z,45.51
2022-08-08T04:05:27.419Z,46.20
2022-08-08T04:07:58.294Z,46.87
2022-08-08T04:10:32.084Z,47.28
2022-08-08T04:13:03.910Z,45.99
2022-08-08T04:16:03.510Z,45.71
2022-08-08T04:18:44.613Z,45.95
2022-08-08T04:21:22.811Z,46.28
2022-08-08T04:24:05.679Z,46.09
2022-08-08T04:26:56.728Z,46.45
2022-08-08T04:29:24.278Z,46.19
2022-08-08T04:31:59.009Z,47.42
2022-08-08T04:34:31.827Z,46.86
2022-08-08T04:37:01.022Z,45.89
2022-08-08T04:40:03.843Z,45.68
2022-08-08T04:42:21.292Z,45.69
2022-08-08T04:44:51.349Z,45.98
2022-08-08T04:47:24.444Z,46.76
2022-08-08T04:50:00.696Z,46.91
2022-08-08T04:52:35.522Z,47.20
2022-08-08T04:55:06.444Z,48.52
2022-08-08T04:57:35.565Z,46.75
2022-08-08T05:00:05.165Z,45.67
2022-08-08T05:02:34.451Z,44.84
2022-08-08T05:05:06.487Z,45.40
2022-08-08T05:07:46.240Z,47.87
2022-08-08T05:10:15.221Z,45.79
2022-08-08T05:13:00.249Z,45.82
2022-08-08T05:16:53.641Z,45.79
2022-08-08T05:18:21.150Z,46.23
2022-08-08T05:20:52.485Z,47.01
2022-08-08T05:23:24.108Z,47.65
2022-08-08T05:26:00.234Z,48.63
2022-08-08T05:28:56.870Z,48.78
2022-08-08T05:32:03.200Z,48.59
2022-08-08T05:34:14.451Z,48.44
2022-08-08T05:36:43.704Z,48.90
2022-08-08T05:39:13.069Z,49.20
2022-08-08T05:41:55.408Z,49.93
2022-08-08T05:44:31.000Z,50.09
2022-08-08T05:47:02.924Z,49.61
2022-08-08T05:49:31.528Z,48.98
2022-08-08T05:52:05.407Z,49.08
2022-08-08T05:54:50.247Z,49.11
2022-08-08T05:58:05.661Z,49.65
2022-08-08T06:00:23.386Z,49.63
2022-08-08T06:05:51.824Z,48.61
2022-08-08T06:08:33.318Z,48.97
2022-08-08T06:11:13.447Z,50.46
2022-08-08T06:13:51.698Z,50.56
2022-08-08T06:16:27.254Z,50.68
2022-08-08T06:18:57.556Z,49.39
2022-08-08T06:21:49.039Z,49.72
2022-08-08T06:24:22.879Z,49.46
2022-08-08T06:27:09.235Z,48.08
2022-08-08T06:32:27.104Z,46.85
2022-08-08T06:36:04.137Z,46.27
2022-08-08T06:37:55.040Z,46.25
2022-08-08T06:40:26.655Z,48.43
2022-08-08T06:42:56.545Z,49.27
2022-08-08T06:45:26.846Z,49.49
2022-08-08T06:48:00.833Z,49.44
2022-08-08T06:50:39.870Z,48.74
2022-08-08T06:53:17.624Z,48.45
2022-08-08T06:56:02.397Z,48.03
2022-08-08T06:58:34.746Z,46.52
2022-08-08T07:02:17.618Z,46.81
2022-08-08T07:04:37.248Z,46.93
2022-08-08T07:07:01.549Z,46.84
2022-08-08T07:10:00.187Z,44.64
2022-08-08T07:12:40.392Z,43.31
2022-08-08T07:15:31.798Z,44.05
2022-08-08T07:18:35.447Z,44.58
2022-08-08T07:21:02.131Z,44.15
2022-08-08T07:24:01.198Z,43.36
2022-08-08T07:26:35.949Z,42.66
2022-08-08T07:29:20.247Z,43.89
2022-08-08T07:31:58.636Z,43.53
2022-08-08T07:34:35.085Z,44.92
2022-08-08T07:37:11.983Z,43.53
2022-08-08T07:39:56.204Z,41.83
2022-08-08T07:42:33.154Z,42.65
2022-08-08T07:45:07.539Z,40.96
2022-08-08T07:50:13.100Z,40.30
2022-08-08T07:52:51.788Z,39.69
2022-08-08T07:55:28.714Z,40.05
2022-08-08T07:58:22.425Z,39.73
2022-08-08T08:01:12.484Z,39.86
2022-08-08T08:03:47.439Z,38.29
2022-08-08T08:06:18.493Z,37.01
2022-08-08T08:08:53.060Z,37.57
2022-08-08T08:11:34.022Z,37.39
2022-08-08T08:14:30.640Z,37.17
2022-08-08T08:17:03.835Z,37.06
2022-08-08T08:19:45.414Z,37.06
2022-08-08T08:22:31.474Z,34.67
2022-08-08T08:25:07.461Z,36.46
2022-08-08T08:27:36.519Z,34.84
2022-08-08T08:30:05.281Z,34.02
2022-08-08T08:32:40.993Z,32.95
2022-08-08T08:35:29.466Z,31.52
2022-08-08T08:38:17.356Z,30.67
2022-08-08T08:40:48.644Z,32.00
2022-08-08T08:43:20.363Z,32.77
2022-08-08T08:45:57.420Z,33.19
2022-08-08T08:51:06.262Z,34.62
2022-08-08T08:53:56.375Z,34.68
2022-08-08T08:56:37.500Z,34.92
2022-08-08T08:59:15.374Z,34.42
2022-08-08T09:01:48.288Z,34.50
2022-08-08T09:04:30.929Z,33.83
2022-08-08T09:12:15.149Z,35.34
2022-08-08T09:14:47.651Z,35.53
2022-08-08T09:17:19.249Z,37.38
2022-08-08T09:21:58.840Z,36.24
2022-08-08T09:22:47.470Z,36.41
2022-08-08T09:25:16.226Z,37.55
2022-08-08T09:27:57.263Z,37.05
2022-08-08T09:30:28.233Z,36.73
2022-08-08T09:33:12.881Z,37.19
2022-08-08T09:35:54.559Z,37.17
2022-08-08T09:38:56.239Z,37.38
2022-08-08T09:41:54.763Z,37.48
2022-08-08T09:44:41.273Z,37.73
2022-08-08T09:47:25.672Z,36.67
2022-08-08T09:50:04.807Z,36.86
2022-08-08T09:52:53.868Z,37.38
2022-08-08T09:56:03.460Z,37.31
2022-08-08T09:58:27.593Z,37.89
2022-08-08T10:01:02.871Z,39.28
2022-08-08T10:03:45.472Z,39.30
2022-08-08T10:06:18.635Z,37.68
2022-08-08T10:08:47.813Z,38.44
2022-08-08T10:12:26.624Z,38.60
2022-08-08T10:16:42.455Z,38.82
2022-08-08T10:19:23.087Z,40.67
2022-08-08T10:21:53.777Z,38.68
2022-08-08T10:24:28.511Z,38.81
2022-08-08T10:27:06.600Z,37.73
2022-08-08T10:29:58.668Z,38.75
2022-08-08T10:32:40.478Z,38.48
2022-08-08T10:36:08.502Z,38.53
2022-08-08T10:38:19.995Z,38.30
2022-08-08T10:40:51.541Z,38.14
2022-08-08T10:43:22.208Z,39.43
2022-08-08T10:45:57.175Z,37.90
2022-08-08T10:48:37.585Z,38.51
2022-08-08T10:51:26.628Z,39.44
2022-08-08T10:54:02.672Z,39.56
2022-08-08T10:56:36.971Z,39.42
2022-08-08T10:59:18.509Z,40.38
2022-08-08T11:01:49.414Z,40.70
2022-08-08T11:04:29.746Z,41.47
2022-08-08T11:09:50.705Z,42.05
2022-08-08T11:12:28.619Z,43.46
2022-08-08T11:15:04.630Z,43.89
2022-08-08T11:17:59.765Z,42.98
2022-08-08T11:20:28.044Z,44.04
2022-08-08T11:23:00.664Z,43.34
2022-08-08T11:25:52.006Z,42.90
2022-08-08T11:28:29.495Z,43.21
2022-08-08T11:31:04.133Z,43.90
2022-08-08T11:33:52.943Z,43.72
2022-08-08T11:36:29.814Z,45.11
2022-08-08T11:38:59.682Z,43.22
2022-08-08T11:41:38.107Z,42.88
2022-08-08T11:44:07.120Z,42.90
2022-08-08T11:46:37.649Z,44.98
2022-08-08T11:49:17.141Z,45.85
2022-08-08T11:51:49.811Z,46.52
2022-08-08T11:54:42.292Z,46.89
2022-08-08T11:57:23.979Z,47.03
2022-08-08T12:00:05.785Z,49.06
2022-08-08T12:02:55.660Z,47.24
2022-08-08T12:05:33.722Z,46.90
2022-08-08T12:08:02.116Z,46.65
2022-08-08T12:10:36.312Z,46.63
2022-08-08T12:13:09.744Z,47.12
2022-08-08T12:18:24.440Z,46.61
2022-08-08T12:20:58.690Z,47.24
2022-08-08T12:23:40.307Z,47.75
2022-08-08T12:26:28.409Z,48.39
2022-08-08T12:29:25.812Z,48.64
2022-08-08T12:32:13.606Z,48.56
2022-08-08T12:35:04.395Z,48.97
2022-08-08T12:38:00.951Z,48.15
2022-08-08T12:40:54.239Z,47.55
2022-08-08T12:43:31.976Z,47.49
2022-08-08T12:46:19.292Z,46.63
2022-08-08T12:49:22.200Z,47.00
2022-08-08T12:51:59.310Z,47.03
2022-08-08T12:54:37.335Z,46.86
2022-08-08T12:57:13.219Z,47.31
2022-08-08T13:02:37.941Z,48.44
2022-08-08T13:05:27.149Z,48.44
2022-08-08T13:08:20.681Z,47.83
2022-08-08T13:11:02.585Z,47.56
2022-08-08T13:13:38.804Z,48.19
2022-08-08T13:16:26.408Z,46.98
2022-08-08T13:19:11.805Z,47.46
2022-08-08T13:21:58.312Z,45.54
2022-08-08T13:24:40.879Z,45.25
2022-08-08T13:27:35.621Z,45.12
2022-08-08T13:30:20.889Z,44.78
2022-08-08T13:33:00.527Z,44.77
2022-08-08T13:35:41.092Z,45.22
2022-08-08T13:38:28.215Z,45.22
2022-08-08T13:40:58.547Z,44.45
2022-08-08T13:46:28.386Z,45.64
2022-08-08T13:49:12.241Z,43.82
2022-08-08T13:51:59.801Z,43.76
2022-08-08T13:57:14.614Z,41.99
2022-08-08T13:59:49.216Z,44.88
2022-08-08T14:02:30.973Z,43.95
2022-08-08T14:05:22.365Z,42.10
2022-08-08T14:08:01.676Z,42.51
2022-08-08T14:10:42.010Z,43.66
2022-08-08T14:13:33.551Z,40.93
2022-08-08T14:16:16.276Z,41.03
2022-08-08T14:18:51.872Z,41.22
2022-08-08T14:21:22.364Z,41.72
2022-08-08T14:24:07.252Z,41.77
2022-08-08T14:26:49.803Z,41.94
2022-08-08T14:29:29.931Z,43.47
2022-08-08T14:32:08.862Z,44.25
2022-08-08T14:34:39.393Z,45.98
2022-08-08T14:37:19.771Z,44.82
2022-08-08T14:39:53.782Z,44.91
2022-08-08T14:42:31.793Z,45.44
2022-08-08T14:45:05.612Z,46.04
2022-08-08T14:47:53.367Z,46.76
2022-08-08T14:50:37.922Z,47.04
2022-08-08T14:53:13.453Z,46.97
2022-08-08T14:55:45.084Z,47.03
2022-08-08T14:58:16.977Z,47.36
2022-08-08T15:00:54.501Z,47.52
2022-08-08T15:03:25.904Z,46.55
2022-08-08T15:05:58.807Z,47.25
2022-08-08T15:08:35.569Z,47.86
2022-08-08T15:11:10.473Z,47.56
2022-08-08T15:14:00.344Z,47.75
2022-08-08T15:16:34.399Z,48.43
2022-08-08T15:19:15.722Z,47.65
2022-08-08T15:21:45.345Z,47.80
2022-08-08T15:24:17.106Z,47.95
2022-08-08T15:27:04.104Z,49.03
2022-08-08T15:29:59.557Z,48.65
2022-08-08T15:32:34.840Z,48.29
2022-08-08T15:35:09.055Z,48.09
2022-08-08T15:37:37.197Z,48.92
2022-08-08T15:40:15.132Z,48.19
2022-08-08T15:42:45.027Z,49.65
2022-08-08T15:45:16.502Z,48.01
2022-08-08T15:48:05.558Z,47.89
2022-08-08T15:50:38.614Z,48.82
2022-08-08T15:53:08.964Z,49.19
2022-08-08T15:55:42.650Z,49.21
2022-08-08T15:58:11.166Z,49.77
2022-08-08T16:00:50.281Z,50.19
2022-08-08T16:06:01.812Z,49.65
2022-08-08T16:08:35.554Z,49.63
2022-08-08T16:13:10.988Z,48.95
2022-08-08T16:13:53.368Z,49.02
2022-08-08T16:16:22.185Z,48.49
2022-08-08T16:18:56.772Z,48.41
2022-08-08T16:21:31.526Z,48.02
2022-08-08T16:24:10.019Z,47.92
2022-08-08T16:26:39.812Z,46.91
2022-08-08T16:29:16.336Z,46.55
2022-08-08T16:31:49.230Z,46.48
2022-08-08T16:34:19.054Z,46.71
2022-08-08T16:36:50.514Z,46.80
2022-08-08T16:39:59.651Z,46.75
2022-08-08T16:42:13.872Z,46.81
2022-08-08T16:44:54.488Z,46.62
2022-08-08T16:47:40.688Z,45.82
2022-08-08T16:50:15.612Z,46.22
2022-08-08T16:55:00.529Z,45.77
2022-08-08T16:55:55.435Z,45.51
2022-08-08T16:58:32.527Z,45.86
2022-08-08T17:01:05.817Z,47.41
2022-08-08T17:04:00.819Z,47.19
2022-08-08T17:06:36.442Z,46.92
2022-08-08T17:09:14.760Z,46.48
2022-08-08T17:11:48.485Z,46.39
2022-08-08T17:14:34.247Z,47.94
2022-08-08T17:17:06.582Z,47.16
2022-08-08T17:19:54.478Z,48.24
2022-08-08T17:22:39.084Z,48.04
2022-08-08T17:25:11.703Z,47.93
2022-08-08T17:27:47.897Z,48.19
2022-08-08T17:30:27.160Z,49.46
2022-08-08T17:34:49.420Z,49.88
2022-08-08T17:36:10.145Z,50.07
2022-08-08T17:38:48.630Z,51.20
2022-08-08T17:41:23.042Z,51.12
2022-08-08T17:44:02.380Z,52.74
2022-08-08T17:46:38.582Z,52.70
2022-08-08T17:51:43.628Z,53.15
2022-08-08T17:54:21.990Z,52.75
2022-08-08T17:56:55.640Z,52.24
2022-08-08T18:02:21.283Z,52.68
2022-08-08T18:04:58.892Z,52.99
2022-08-08T18:08:04.312Z,52.69
2022-08-08T18:10:37.643Z,53.48
2022-08-08T18:13:07.584Z,54.52
2022-08-08T18:15:45.761Z,53.40
2022-08-08T18:18:39.282Z,53.92
2022-08-08T18:21:25.238Z,54.28
2022-08-08T18:24:19.274Z,53.92
2022-08-08T18:26:58.055Z,53.36
2022-08-08T18:29:36.084Z,53.57
2022-08-08T18:32:06.589Z,53.13
2022-08-08T18:34:43.180Z,52.69
2022-08-08T18:37:17.673Z,53.14
2022-08-08T18:40:06.718Z,51.79
2022-08-08T18:42:50.222Z,53.53
2022-08-08T18:45:44.769Z,53.68
2022-08-08T18:48:15.885Z,53.35
2022-08-08T18:50:58.516Z,53.07
2022-08-08T18:56:22.821Z,52.85
2022-08-08T18:58:55.879Z,53.17
2022-08-08T19:02:24.896Z,53.55
2022-08-08T19:04:27.810Z,54.05
2022-08-08T19:07:04.698Z,54.40
2022-08-08T19:09:48.820Z,54.37
2022-08-08T19:12:26.714Z,53.37
2022-08-08T19:14:57.750Z,53.63
2022-08-08T19:22:57.046Z,54.02
2022-08-08T19:26:02.351Z,54.84
2022-08-08T19:28:26.895Z,54.92
2022-08-08T19:31:07.390Z,54.72
2022-08-08T19:36:28.270Z,54.68
2022-08-08T19:38:58.267Z,56.06
2022-08-08T19:41:38.676Z,55.54
2022-08-08T19:44:12.551Z,56.50
2022-08-08T19:46:55.834Z,55.80
2022-08-08T19:49:27.939Z,57.13
2022-08-08T19:52:13.850Z,56.35
2022-08-08T19:55:12.891Z,56.48
2022-08-08T19:57:47.384Z,56.34
2022-08-08T20:00:32.649Z,56.33
2022-08-08T20:03:14.649Z,57.19
2022-08-08T20:08:47.644Z,57.32
2022-08-08T20:11:24.876Z,56.74
2022-08-08T20:14:32.728Z,56.21
2022-08-08T20:16:55.668Z,55.92
2022-08-08T20:19:42.335Z,56.20
2022-08-08T20:22:21.032Z,56.84
2022-08-08T20:25:00.380Z,56.64
2022-08-08T20:27:43.837Z,56.79
2022-08-08T20:30:52.801Z,55.55
2022-08-08T20:35:59.583Z,54.56
2022-08-08T20:38:33.544Z,55.27
2022-08-08T20:41:17.120Z,54.66
2022-08-08T20:43:49.417Z,53.05
2022-08-08T20:46:25.552Z,52.38
2022-08-08T20:48:58.204Z,52.15
2022-08-08T20:51:32.634Z,52.12
2022-08-08T20:54:09.288Z,51.77
2022-08-08T20:57:16.379Z,50.78
2022-08-08T20:59:41.304Z,49.73
2022-08-08T21:02:14.615Z,50.82
2022-08-08T21:05:04.577Z,50.07
2022-08-08T21:07:47.364Z,49.53
2022-08-08T21:10:28.273Z,49.41
2022-08-08T21:12:59.907Z,50.00
2022-08-08T21:16:05.295Z,48.73
2022-08-08T21:18:17.067Z,48.58
2022-08-08T21:20:50.874Z,48.82
2022-08-08T21:23:19.004Z,48.70
2022-08-08T21:25:55.021Z,49.04
2022-08-08T21:28:36.060Z,48.27
2022-08-08T21:31:22.617Z,47.68
2022-08-08T21:33:52.599Z,49.01
2022-08-08T21:36:21.698Z,48.00
2022-08-08T21:39:04.172Z,48.89
2022-08-08T21:41:38.713Z,47.43
2022-08-08T21:44:21.215Z,48.25
2022-08-08T21:48:05.752Z,49.32
2022-08-08T21:49:44.883Z,48.97
2022-08-08T21:54:35.370Z,48.68
2022-08-08T21:55:04.597Z,48.70
2022-08-08T21:58:05.215Z,48.59
2022-08-08T22:00:40.734Z,48.30
2022-08-08T22:03:10.953Z,49.11
2022-08-08T22:05:43.805Z,49.13
2022-08-08T22:08:13.134Z,49.36
2022-08-08T22:10:42.308Z,48.65
2022-08-08T22:13:18.867Z,48.68
2022-08-08T22:16:00.473Z,49.27
2022-08-08T22:18:30.087Z,48.89
2022-08-08T22:21:13.829Z,48.26
2022-08-08T22:23:50.940Z,48.54
2022-08-08T22:26:29.275Z,49.04
2022-08-08T22:29:14.593Z,48.63
2022-08-08T22:32:01.430Z,49.16
2022-08-08T22:34:39.827Z,51.51
2022-08-08T22:37:14.753Z,57.33
2022-08-08T22:40:00.433Z,56.23
2022-08-08T22:42:31.658Z,57.98
2022-08-08T22:45:05.417Z,58.25
2022-08-08T22:47:41.420Z,59.19
2022-08-08T22:50:25.779Z,59.99
2022-08-08T22:54:27.515Z,60.86
2022-08-08T22:55:58.415Z,60.59
2022-08-08T22:58:33.166Z,61.39
2022-08-08T23:01:26.511Z,61.60
2022-08-08T23:03:55.742Z,60.90
2022-08-08T23:06:27.183Z,62.23
2022-08-08T23:08:58.520Z,62.76
2022-08-08T23:12:17.806Z,62.23
2022-08-08T23:14:16.438Z,62.67
2022-08-08T23:16:53.294Z,62.97
2022-08-08T23:19:27.064Z,62.65
2022-08-08T23:21:54.609Z,63.19
2022-08-08T23:24:24.078Z,63.64
2022-08-08T23:26:56.209Z,65.10
2022-08-08T23:29:25.654Z,64.83
2022-08-08T23:31:53.352Z,65.27
2022-08-08T23:34:22.286Z,64.73
2022-08-08T23:36:56.901Z,64.62
2022-08-08T23:39:26.395Z,64.05
2022-08-08T23:42:03.173Z,65.07
2022-08-08T23:44:31.841Z,64.21
2022-08-08T23:49:02.530Z,64.74
2022-08-08T23:49:49.478Z,64.66
2022-08-08T23:52:29.544Z,65.39
2022-08-08T23:55:07.458Z,65.07
2022-08-08T23:57:52.349Z,64.34
